sensor_id;sensor_type;location;lat;lon;timestamp;pressure;altitude;pressure_sealevel;temperature;humidity
9521;BME280;4798;41.574;23.734;2023-07-13T00:01:14;95640.34;;;24.35;75.91
9521;BME280;4798;41.574;23.734;2023-07-13T00:03:44;95644.66;;;24.36;75.04
9521;BME280;4798;41.574;23.734;2023-07-13T00:06:13;95638.00;;;24.33;76.03
9521;BME280;4798;41.574;23.734;2023-07-13T00:08:41;95648.72;;;24.30;76.45
9521;BME280;4798;41.574;23.734;2023-07-13T00:11:09;95639.75;;;24.26;76.42
9521;BME280;4798;41.574;23.734;2023-07-13T00:13:38;95635.78;;;24.08;76.21
9521;BME280;4798;41.574;23.734;2023-07-13T00:16:07;95616.28;;;23.74;76.95
9521;BME280;4798;41.574;23.734;2023-07-13T00:18:36;95643.16;;;23.95;76.78
9521;BME280;4798;41.574;23.734;2023-07-13T00:21:06;95640.19;;;24.00;76.88
9521;BME280;4798;41.574;23.734;2023-07-13T00:23:37;95648.84;;;24.06;77.34
9521;BME280;4798;41.574;23.734;2023-07-13T00:26:08;95640.50;;;23.98;76.99
9521;BME280;4798;41.574;23.734;2023-07-13T00:28:38;95642.09;;;23.99;76.93
9521;BME280;4798;41.574;23.734;2023-07-13T00:31:07;95644.53;;;23.89;77.53
9521;BME280;4798;41.574;23.734;2023-07-13T00:33:36;95645.44;;;23.65;78.87
9521;BME280;4798;41.574;23.734;2023-07-13T00:36:06;95647.75;;;23.27;82.86
9521;BME280;4798;41.574;23.734;2023-07-13T00:38:35;95585.03;;;22.97;81.61
9521;BME280;4798;41.574;23.734;2023-07-13T00:41:04;95633.69;;;23.61;79.68
9521;BME280;4798;41.574;23.734;2023-07-13T00:43:32;95636.50;;;23.65;78.60
9521;BME280;4798;41.574;23.734;2023-07-13T00:46:17;95639.41;;;23.72;78.66
9521;BME280;4798;41.574;23.734;2023-07-13T00:48:48;95636.81;;;23.75;78.47
9521;BME280;4798;41.574;23.734;2023-07-13T00:51:22;95634.00;;;23.72;78.84
9521;BME280;4798;41.574;23.734;2023-07-13T00:53:53;95625.81;;;23.56;79.08
9521;BME280;4798;41.574;23.734;2023-07-13T00:56:23;95638.56;;;23.56;80.22
9521;BME280;4798;41.574;23.734;2023-07-13T00:58:52;95639.16;;;23.49;80.61
9521;BME280;4798;41.574;23.734;2023-07-13T01:01:21;95586.75;;;23.02;81.98
9521;BME280;4798;41.574;23.734;2023-07-13T01:03:49;95634.84;;;23.48;81.15
9521;BME280;4798;41.574;23.734;2023-07-13T01:06:19;95637.81;;;23.43;82.46
9521;BME280;4798;41.574;23.734;2023-07-13T01:08:47;95638.25;;;23.33;82.42
9521;BME280;4798;41.574;23.734;2023-07-13T01:11:19;95615.06;;;23.20;82.44
9521;BME280;4798;41.574;23.734;2023-07-13T01:13:48;95637.13;;;23.34;82.30
9521;BME280;4798;41.574;23.734;2023-07-13T01:16:22;95636.25;;;23.30;82.60
9521;BME280;4798;41.574;23.734;2023-07-13T01:18:52;95646.53;;;23.36;82.51
9521;BME280;4798;41.574;23.734;2023-07-13T01:21:21;95639.03;;;23.33;81.54
9521;BME280;4798;41.574;23.734;2023-07-13T01:23:50;95643.03;;;23.24;83.51
9521;BME280;4798;41.574;23.734;2023-07-13T01:26:18;95640.34;;;23.00;83.24
9521;BME280;4798;41.574;23.734;2023-07-13T01:28:47;95646.44;;;23.09;83.51
9521;BME280;4798;41.574;23.734;2023-07-13T01:31:15;95626.16;;;23.03;83.20
9521;BME280;4798;41.574;23.734;2023-07-13T01:33:43;95646.19;;;23.14;84.72
9521;BME280;4798;41.574;23.734;2023-07-13T01:36:12;95649.34;;;23.16;83.81
9521;BME280;4798;41.574;23.734;2023-07-13T01:38:42;95646.66;;;23.04;85.84
9521;BME280;4798;41.574;23.734;2023-07-13T01:41:11;95654.22;;;22.98;84.74
9521;BME280;4798;41.574;23.734;2023-07-13T01:43:39;95647.09;;;23.06;83.60
9521;BME280;4798;41.574;23.734;2023-07-13T01:46:08;95645.44;;;23.01;84.53
9521;BME280;4798;41.574;23.734;2023-07-13T01:48:49;95572.03;;;22.51;85.53
9521;BME280;4798;41.574;23.734;2023-07-13T01:51:19;95580.66;;;22.44;85.25
9521;BME280;4798;41.574;23.734;2023-07-13T01:53:48;95652.41;;;22.90;86.17
9521;BME280;4798;41.574;23.734;2023-07-13T01:56:18;95658.72;;;22.94;86.50
9521;BME280;4798;41.574;23.734;2023-07-13T01:58:47;95656.34;;;22.93;86.13
9521;BME280;4798;41.574;23.734;2023-07-13T02:01:15;95660.97;;;22.92;86.77
9521;BME280;4798;41.574;23.734;2023-07-13T02:03:44;95666.06;;;22.82;88.06
9521;BME280;4798;41.574;23.734;2023-07-13T02:06:13;95673.88;;;21.93;95.92
9521;BME280;4798;41.574;23.734;2023-07-13T02:08:42;95660.22;;;22.23;93.46
9521;BME280;4798;41.574;23.734;2023-07-13T02:11:12;95667.22;;;22.48;91.84
9521;BME280;4798;41.574;23.734;2023-07-13T02:13:40;95662.94;;;22.47;93.51
9521;BME280;4798;41.574;23.734;2023-07-13T02:16:08;95672.28;;;22.49;92.91
9521;BME280;4798;41.574;23.734;2023-07-13T02:18:38;95682.03;;;22.18;94.10
9521;BME280;4798;41.574;23.734;2023-07-13T02:21:06;95677.28;;;22.14;95.91
9521;BME280;4798;41.574;23.734;2023-07-13T02:23:35;95670.13;;;22.31;96.22
9521;BME280;4798;41.574;23.734;2023-07-13T02:26:03;95677.88;;;22.20;95.86
9521;BME280;4798;41.574;23.734;2023-07-13T02:28:33;95664.72;;;22.19;95.12
9521;BME280;4798;41.574;23.734;2023-07-13T02:31:06;95673.53;;;22.40;93.47
9521;BME280;4798;41.574;23.734;2023-07-13T02:33:35;95674.31;;;22.40;92.39
9521;BME280;4798;41.574;23.734;2023-07-13T02:36:04;95668.31;;;22.35;92.71
9521;BME280;4798;41.574;23.734;2023-07-13T02:38:34;95678.03;;;22.48;92.87
9521;BME280;4798;41.574;23.734;2023-07-13T02:41:03;95663.28;;;22.33;97.06
9521;BME280;4798;41.574;23.734;2023-07-13T02:43:32;95663.38;;;22.37;95.62
9521;BME280;4798;41.574;23.734;2023-07-13T02:46:01;95670.03;;;22.39;94.33
9521;BME280;4798;41.574;23.734;2023-07-13T02:48:35;95668.34;;;22.47;92.94
9521;BME280;4798;41.574;23.734;2023-07-13T02:51:04;95659.13;;;22.36;94.17
9521;BME280;4798;41.574;23.734;2023-07-13T02:53:32;95668.03;;;22.48;92.45
9521;BME280;4798;41.574;23.734;2023-07-13T02:56:03;95666.78;;;22.46;91.29
9521;BME280;4798;41.574;23.734;2023-07-13T02:58:33;95670.28;;;22.46;89.77
9521;BME280;4798;41.574;23.734;2023-07-13T03:01:07;95665.47;;;22.19;89.13
9521;BME280;4798;41.574;23.734;2023-07-13T03:03:36;95663.34;;;22.25;90.55
9521;BME280;4798;41.574;23.734;2023-07-13T03:06:05;95673.72;;;22.35;91.00
9521;BME280;4798;41.574;23.734;2023-07-13T03:08:36;95670.81;;;22.40;90.58
9521;BME280;4798;41.574;23.734;2023-07-13T03:11:06;95674.31;;;22.40;90.26
9521;BME280;4798;41.574;23.734;2023-07-13T03:13:36;95674.31;;;22.40;89.27
9521;BME280;4798;41.574;23.734;2023-07-13T03:16:05;95681.69;;;22.19;91.28
9521;BME280;4798;41.574;23.734;2023-07-13T03:18:34;95665.81;;;22.18;90.80
9521;BME280;4798;41.574;23.734;2023-07-13T03:21:04;95655.22;;;21.80;91.74
9521;BME280;4798;41.574;23.734;2023-07-13T03:23:33;95592.06;;;21.27;92.22
9521;BME280;4798;41.574;23.734;2023-07-13T03:26:03;95680.63;;;21.99;92.95
9521;BME280;4798;41.574;23.734;2023-07-13T03:28:32;95690.53;;;22.07;100.00
9521;BME280;4798;41.574;23.734;2023-07-13T03:31:04;95690.50;;;22.40;100.00
9521;BME280;4798;41.574;23.734;2023-07-13T03:33:33;95699.78;;;22.51;100.00
9521;BME280;4798;41.574;23.734;2023-07-13T03:36:02;95659.88;;;22.24;100.00
9521;BME280;4798;41.574;23.734;2023-07-13T03:38:31;95692.78;;;22.38;100.00
9521;BME280;4798;41.574;23.734;2023-07-13T03:41:00;95688.16;;;22.39;100.00
9521;BME280;4798;41.574;23.734;2023-07-13T03:43:28;95688.41;;;22.46;100.00
9521;BME280;4798;41.574;23.734;2023-07-13T03:45:57;95701.56;;;22.59;100.00
9521;BME280;4798;41.574;23.734;2023-07-13T03:48:27;95688.88;;;22.72;100.00
9521;BME280;4798;41.574;23.734;2023-07-13T03:50:55;95692.06;;;22.86;100.00
9521;BME280;4798;41.574;23.734;2023-07-13T03:53:23;95682.25;;;22.94;100.00
9521;BME280;4798;41.574;23.734;2023-07-13T03:55:52;95719.53;;;23.00;100.00
9521;BME280;4798;41.574;23.734;2023-07-13T03:58:26;95638.47;;;22.64;100.00
9521;BME280;4798;41.574;23.734;2023-07-13T04:00:56;95627.09;;;22.70;95.67
9521;BME280;4798;41.574;23.734;2023-07-13T04:03:25;95696.34;;;23.11;97.61
9521;BME280;4798;41.574;23.734;2023-07-13T04:05:56;95701.19;;;23.06;100.00
9521;BME280;4798;41.574;23.734;2023-07-13T04:08:27;95708.84;;;23.16;100.00
9521;BME280;4798;41.574;23.734;2023-07-13T04:10:55;95701.41;;;23.01;100.00
9521;BME280;4798;41.574;23.734;2023-07-13T04:13:24;95709.28;;;23.18;100.00
9521;BME280;4798;41.574;23.734;2023-07-13T04:15:53;95709.53;;;22.77;100.00
9521;BME280;4798;41.574;23.734;2023-07-13T04:18:22;95705.00;;;22.81;100.00
9521;BME280;4798;41.574;23.734;2023-07-13T04:20:51;95706.94;;;23.16;100.00
9521;BME280;4798;41.574;23.734;2023-07-13T04:23:20;95701.41;;;23.25;100.00
9521;BME280;4798;41.574;23.734;2023-07-13T04:25:51;95703.09;;;23.29;100.00
9521;BME280;4798;41.574;23.734;2023-07-13T04:28:21;95702.72;;;23.31;100.00
9521;BME280;4798;41.574;23.734;2023-07-13T04:30:49;95703.88;;;23.30;100.00
9521;BME280;4798;41.574;23.734;2023-07-13T04:33:18;95690.69;;;23.28;100.00
9521;BME280;4798;41.574;23.734;2023-07-13T04:35:49;95706.00;;;23.49;100.00
9521;BME280;4798;41.574;23.734;2023-07-13T04:38:27;95712.41;;;23.56;100.00
9521;BME280;4798;41.574;23.734;2023-07-13T04:40:58;95714.88;;;23.61;94.29
9521;BME280;4798;41.574;23.734;2023-07-13T04:43:27;95703.19;;;23.57;92.66
9521;BME280;4798;41.574;23.734;2023-07-13T04:46:02;95682.31;;;23.58;100.00
9521;BME280;4798;41.574;23.734;2023-07-13T04:48:31;95704.13;;;23.77;99.64
9521;BME280;4798;41.574;23.734;2023-07-13T04:50:59;95702.28;;;23.81;90.15
9521;BME280;4798;41.574;23.734;2023-07-13T04:53:30;95705.13;;;23.84;94.77
9521;BME280;4798;41.574;23.734;2023-07-13T04:56:00;95704.97;;;23.93;95.83
9521;BME280;4798;41.574;23.734;2023-07-13T04:58:29;95703.91;;;24.10;96.89
9521;BME280;4798;41.574;23.734;2023-07-13T05:01:00;95691.44;;;23.93;94.83
9521;BME280;4798;41.574;23.734;2023-07-13T05:03:29;95708.06;;;23.40;92.47
9521;BME280;4798;41.574;23.734;2023-07-13T05:06:00;95716.84;;;22.88;96.10
9521;BME280;4798;41.574;23.734;2023-07-13T05:08:30;95709.97;;;22.91;100.00
9521;BME280;4798;41.574;23.734;2023-07-13T05:10:59;95705.56;;;22.74;100.00
9521;BME280;4798;41.574;23.734;2023-07-13T05:13:28;95717.53;;;22.52;100.00
9521;BME280;4798;41.574;23.734;2023-07-13T05:15:57;95722.84;;;22.49;100.00
9521;BME280;4798;41.574;23.734;2023-07-13T05:18:27;95717.41;;;22.94;99.09
9521;BME280;4798;41.574;23.734;2023-07-13T05:20:59;95651.47;;;22.50;97.28
9521;BME280;4798;41.574;23.734;2023-07-13T05:23:30;95715.91;;;23.20;96.96
9521;BME280;4798;41.574;23.734;2023-07-13T05:26:00;95717.84;;;23.20;94.92
9521;BME280;4798;41.574;23.734;2023-07-13T05:28:30;95713.22;;;23.57;93.98
9521;BME280;4798;41.574;23.734;2023-07-13T05:30:59;95717.91;;;24.12;93.21
9521;BME280;4798;41.574;23.734;2023-07-13T05:33:28;95703.09;;;24.37;89.35
9521;BME280;4798;41.574;23.734;2023-07-13T05:35:56;95709.56;;;24.32;87.71
9521;BME280;4798;41.574;23.734;2023-07-13T05:38:25;95714.44;;;24.86;87.50
9521;BME280;4798;41.574;23.734;2023-07-13T05:40:55;95717.28;;;24.77;82.03
9521;BME280;4798;41.574;23.734;2023-07-13T05:43:25;95731.28;;;24.48;80.64
9521;BME280;4798;41.574;23.734;2023-07-13T05:45:55;95718.50;;;24.92;84.38
9521;BME280;4798;41.574;23.734;2023-07-13T05:48:23;95683.03;;;24.69;81.38
9521;BME280;4798;41.574;23.734;2023-07-13T05:50:52;95717.81;;;24.67;81.05
9521;BME280;4798;41.574;23.734;2023-07-13T05:53:20;95716.66;;;24.52;82.92
9521;BME280;4798;41.574;23.734;2023-07-13T05:55:49;95706.00;;;24.59;84.99
9521;BME280;4798;41.574;23.734;2023-07-13T05:58:21;95714.41;;;24.70;86.85
9521;BME280;4798;41.574;23.734;2023-07-13T06:00:59;95706.56;;;25.12;85.15
9521;BME280;4798;41.574;23.734;2023-07-13T06:03:27;95712.13;;;25.35;83.44
9521;BME280;4798;41.574;23.734;2023-07-13T06:05:56;95677.97;;;25.49;82.00
9521;BME280;4798;41.574;23.734;2023-07-13T06:08:24;95712.59;;;25.91;79.06
9521;BME280;4798;41.574;23.734;2023-07-13T06:10:52;95707.22;;;25.75;80.97
9521;BME280;4798;41.574;23.734;2023-07-13T06:13:22;95704.44;;;26.10;78.28
9521;BME280;4798;41.574;23.734;2023-07-13T06:15:50;95707.25;;;26.55;77.03
9521;BME280;4798;41.574;23.734;2023-07-13T06:18:19;95710.47;;;26.61;76.09
9521;BME280;4798;41.574;23.734;2023-07-13T06:20:47;95709.66;;;26.37;75.50
9521;BME280;4798;41.574;23.734;2023-07-13T06:23:15;95706.91;;;26.15;75.79
9521;BME280;4798;41.574;23.734;2023-07-13T06:25:44;95695.72;;;27.07;74.10
9521;BME280;4798;41.574;23.734;2023-07-13T06:28:12;95691.94;;;27.64;71.61
9521;BME280;4798;41.574;23.734;2023-07-13T06:30:42;95699.06;;;27.76;70.71
9521;BME280;4798;41.574;23.734;2023-07-13T06:33:10;95690.41;;;27.40;70.90
9521;BME280;4798;41.574;23.734;2023-07-13T06:35:38;95687.53;;;27.86;69.93
9521;BME280;4798;41.574;23.734;2023-07-13T06:38:07;95687.47;;;27.00;70.71
9521;BME280;4798;41.574;23.734;2023-07-13T06:40:35;95687.03;;;27.47;71.78
9521;BME280;4798;41.574;23.734;2023-07-13T06:43:03;95681.19;;;27.75;68.97
9521;BME280;4798;41.574;23.734;2023-07-13T06:45:34;95675.22;;;27.95;68.60
9521;BME280;4798;41.574;23.734;2023-07-13T06:48:05;95671.00;;;28.34;66.40
9521;BME280;4798;41.574;23.734;2023-07-13T06:50:34;95666.66;;;28.67;65.70
9521;BME280;4798;41.574;23.734;2023-07-13T06:53:03;95678.78;;;29.17;64.52
9521;BME280;4798;41.574;23.734;2023-07-13T06:55:31;95666.28;;;29.16;63.93
9521;BME280;4798;41.574;23.734;2023-07-13T06:57:59;95657.66;;;29.07;63.57
9521;BME280;4798;41.574;23.734;2023-07-13T07:00:28;95652.97;;;29.11;60.79
9521;BME280;4798;41.574;23.734;2023-07-13T07:02:56;95661.91;;;29.08;61.59
9521;BME280;4798;41.574;23.734;2023-07-13T07:05:26;95663.22;;;29.86;59.64
9521;BME280;4798;41.574;23.734;2023-07-13T07:07:55;95667.19;;;29.95;58.81
9521;BME280;4798;41.574;23.734;2023-07-13T07:10:23;95666.06;;;30.21;57.64
9521;BME280;4798;41.574;23.734;2023-07-13T07:12:52;95659.16;;;30.62;56.75
9521;BME280;4798;41.574;23.734;2023-07-13T07:15:20;95654.44;;;30.38;56.37
9521;BME280;4798;41.574;23.734;2023-07-13T07:17:49;95659.16;;;30.55;56.21
9521;BME280;4798;41.574;23.734;2023-07-13T07:20:17;95655.94;;;30.32;56.15
9521;BME280;4798;41.574;23.734;2023-07-13T07:22:47;95659.97;;;30.98;56.14
9521;BME280;4798;41.574;23.734;2023-07-13T07:25:16;95646.28;;;31.19;54.58
9521;BME280;4798;41.574;23.734;2023-07-13T07:27:44;95647.41;;;31.32;53.74
9521;BME280;4798;41.574;23.734;2023-07-13T07:30:16;95660.38;;;31.11;53.84
9521;BME280;4798;41.574;23.734;2023-07-13T07:32:47;95651.78;;;31.02;52.90
9521;BME280;4798;41.574;23.734;2023-07-13T07:35:18;95636.44;;;31.50;56.25
9521;BME280;4798;41.574;23.734;2023-07-13T07:37:48;95645.06;;;31.49;52.83
9521;BME280;4798;41.574;23.734;2023-07-13T07:40:17;95643.50;;;31.48;52.08
9521;BME280;4798;41.574;23.734;2023-07-13T07:42:49;95645.69;;;31.95;50.46
9521;BME280;4798;41.574;23.734;2023-07-13T07:45:17;95641.81;;;32.65;48.13
9521;BME280;4798;41.574;23.734;2023-07-13T07:47:45;95645.50;;;32.41;49.81
9521;BME280;4798;41.574;23.734;2023-07-13T07:50:14;95637.44;;;32.75;49.83
9521;BME280;4798;41.574;23.734;2023-07-13T07:52:42;95638.06;;;32.93;48.57
9521;BME280;4798;41.574;23.734;2023-07-13T07:55:12;95638.06;;;32.93;49.65
9521;BME280;4798;41.574;23.734;2023-07-13T07:57:44;95644.53;;;33.20;48.76
9521;BME280;4798;41.574;23.734;2023-07-13T08:00:16;95645.16;;;32.90;47.19
9521;BME280;4798;41.574;23.734;2023-07-13T08:02:47;95644.94;;;32.67;47.66
9521;BME280;4798;41.574;23.734;2023-07-13T08:05:19;95642.84;;;33.30;48.84
9521;BME280;4798;41.574;23.734;2023-07-13T08:08:05;95645.56;;;33.33;47.08
9521;BME280;4798;41.574;23.734;2023-07-13T08:10:36;95637.59;;;33.46;45.57
9521;BME280;4798;41.574;23.734;2023-07-13T08:13:05;95647.13;;;34.09;46.16
9521;BME280;4798;41.574;23.734;2023-07-13T08:15:38;95636.88;;;34.13;45.23
9521;BME280;4798;41.574;23.734;2023-07-13T08:18:07;95640.97;;;34.58;47.00
9521;BME280;4798;41.574;23.734;2023-07-13T08:20:37;95618.78;;;34.12;46.06
9521;BME280;4798;41.574;23.734;2023-07-13T08:23:06;95628.94;;;33.47;46.28
9521;BME280;4798;41.574;23.734;2023-07-13T08:25:36;95630.72;;;34.85;45.36
9521;BME280;4798;41.574;23.734;2023-07-13T08:28:05;95622.66;;;34.71;43.96
9521;BME280;4798;41.574;23.734;2023-07-13T08:30:33;95619.84;;;34.48;44.59
9521;BME280;4798;41.574;23.734;2023-07-13T08:33:03;95621.50;;;34.42;44.34
9521;BME280;4798;41.574;23.734;2023-07-13T08:35:31;95622.69;;;34.94;45.58
9521;BME280;4798;41.574;23.734;2023-07-13T08:37:59;95620.91;;;35.54;44.58
9521;BME280;4798;41.574;23.734;2023-07-13T08:40:28;95615.22;;;35.61;45.76
9521;BME280;4798;41.574;23.734;2023-07-13T08:42:58;95599.03;;;35.20;42.07
9521;BME280;4798;41.574;23.734;2023-07-13T08:45:32;95610.13;;;35.17;41.60
9521;BME280;4798;41.574;23.734;2023-07-13T08:48:05;95610.13;;;34.93;41.85
9521;BME280;4798;41.574;23.734;2023-07-13T08:50:41;95604.47;;;35.47;42.85
9521;BME280;4798;41.574;23.734;2023-07-13T08:53:33;95603.44;;;36.00;41.74
9521;BME280;4798;41.574;23.734;2023-07-13T08:56:03;95605.25;;;36.06;42.38
9521;BME280;4798;41.574;23.734;2023-07-13T08:58:33;95596.66;;;36.04;41.38
9521;BME280;4798;41.574;23.734;2023-07-13T09:01:12;95592.63;;;37.09;39.31
9521;BME280;4798;41.574;23.734;2023-07-13T09:03:50;95594.91;;;37.43;37.77
9521;BME280;4798;41.574;23.734;2023-07-13T09:06:23;95593.06;;;37.08;37.59
9521;BME280;4798;41.574;23.734;2023-07-13T09:08:59;95581.41;;;37.16;38.19
9521;BME280;4798;41.574;23.734;2023-07-13T09:11:40;95585.66;;;36.37;39.04
9521;BME280;4798;41.574;23.734;2023-07-13T09:14:37;95579.75;;;36.54;38.83
9521;BME280;4798;41.574;23.734;2023-07-13T09:17:15;95577.69;;;37.51;38.88
9521;BME280;4798;41.574;23.734;2023-07-13T09:19:48;95575.13;;;37.44;37.98
9521;BME280;4798;41.574;23.734;2023-07-13T09:22:19;95560.13;;;37.58;37.73
9521;BME280;4798;41.574;23.734;2023-07-13T09:24:53;95567.84;;;37.50;37.64
9521;BME280;4798;41.574;23.734;2023-07-13T09:27:29;95559.50;;;37.22;37.10
9521;BME280;4798;41.574;23.734;2023-07-13T09:32:51;95559.38;;;36.97;37.91
9521;BME280;4798;41.574;23.734;2023-07-13T09:35:25;95541.00;;;37.06;37.72
9521;BME280;4798;41.574;23.734;2023-07-13T09:37:59;95546.47;;;37.22;38.13
9521;BME280;4798;41.574;23.734;2023-07-13T09:40:37;95535.22;;;37.29;38.89
9521;BME280;4798;41.574;23.734;2023-07-13T09:43:10;95526.91;;;37.87;38.67
9521;BME280;4798;41.574;23.734;2023-07-13T09:45:45;95525.97;;;37.65;38.15
9521;BME280;4798;41.574;23.734;2023-07-13T09:48:15;95531.13;;;37.91;37.92
9521;BME280;4798;41.574;23.734;2023-07-13T09:50:44;95521.16;;;38.19;38.17
9521;BME280;4798;41.574;23.734;2023-07-13T09:53:14;95526.13;;;38.62;37.25
9521;BME280;4798;41.574;23.734;2023-07-13T09:55:44;95526.97;;;37.83;37.21
9521;BME280;4798;41.574;23.734;2023-07-13T09:58:17;95528.34;;;38.04;37.43
9521;BME280;4798;41.574;23.734;2023-07-13T10:00:56;95529.56;;;37.04;38.30
9521;BME280;4798;41.574;23.734;2023-07-13T10:03:27;95520.19;;;37.59;38.44
9521;BME280;4798;41.574;23.734;2023-07-13T10:06:09;95505.09;;;38.14;38.21
9521;BME280;4798;41.574;23.734;2023-07-13T10:08:39;95523.59;;;37.92;37.98
9521;BME280;4798;41.574;23.734;2023-07-13T10:11:12;95511.16;;;38.85;37.59
9521;BME280;4798;41.574;23.734;2023-07-13T10:13:43;95509.38;;;39.12;39.22
9521;BME280;4798;41.574;23.734;2023-07-13T10:16:14;95451.88;;;38.69;37.16
9521;BME280;4798;41.574;23.734;2023-07-13T10:18:46;95482.28;;;39.29;36.89
9521;BME280;4798;41.574;23.734;2023-07-13T10:21:17;95497.59;;;39.86;37.18
9521;BME280;4798;41.574;23.734;2023-07-13T10:24:06;95490.88;;;39.96;36.92
9521;BME280;4798;41.574;23.734;2023-07-13T10:26:42;95451.41;;;39.70;37.64
9521;BME280;4798;41.574;23.734;2023-07-13T10:29:15;95488.59;;;39.73;38.88
9521;BME280;4798;41.574;23.734;2023-07-13T10:31:46;95481.63;;;39.68;38.22
9521;BME280;4798;41.574;23.734;2023-07-13T10:34:15;95476.56;;;39.67;38.42
9521;BME280;4798;41.574;23.734;2023-07-13T10:36:45;95471.63;;;39.71;36.08
9521;BME280;4798;41.574;23.734;2023-07-13T10:39:17;95461.16;;;40.06;35.69
9521;BME280;4798;41.574;23.734;2023-07-13T10:41:51;95463.34;;;40.11;34.67
9521;BME280;4798;41.574;23.734;2023-07-13T10:44:25;95452.59;;;40.31;34.54
9521;BME280;4798;41.574;23.734;2023-07-13T10:46:59;95456.25;;;40.10;34.85
9521;BME280;4798;41.574;23.734;2023-07-13T10:49:31;95451.13;;;40.08;36.28
9521;BME280;4798;41.574;23.734;2023-07-13T10:52:00;95459.38;;;39.59;35.75
9521;BME280;4798;41.574;23.734;2023-07-13T10:54:31;95446.72;;;39.89;36.90
9521;BME280;4798;41.574;23.734;2023-07-13T10:57:16;95443.06;;;40.01;37.91
9521;BME280;4798;41.574;23.734;2023-07-13T10:59:49;95443.34;;;40.34;35.78
9521;BME280;4798;41.574;23.734;2023-07-13T11:02:42;95440.97;;;40.72;36.28
9521;BME280;4798;41.574;23.734;2023-07-13T11:05:26;95435.56;;;39.80;37.17
9521;BME280;4798;41.574;23.734;2023-07-13T11:08:02;95431.09;;;39.21;37.84
9521;BME280;4798;41.574;23.734;2023-07-13T11:10:49;95427.88;;;38.88;38.33
9521;BME280;4798;41.574;23.734;2023-07-13T11:13:38;95428.34;;;39.08;37.67
9521;BME280;4798;41.574;23.734;2023-07-13T11:16:14;95422.13;;;39.48;37.67
9521;BME280;4798;41.574;23.734;2023-07-13T11:19:37;95417.59;;;40.42;37.16
9521;BME280;4798;41.574;23.734;2023-07-13T11:22:16;95419.25;;;40.22;36.48
9521;BME280;4798;41.574;23.734;2023-07-13T11:24:56;95409.94;;;40.92;35.98
9521;BME280;4798;41.574;23.734;2023-07-13T11:27:40;95415.81;;;40.76;35.76
9521;BME280;4798;41.574;23.734;2023-07-13T11:30:23;95416.63;;;39.87;36.35
9521;BME280;4798;41.574;23.734;2023-07-13T11:33:03;95414.72;;;40.55;35.55
9521;BME280;4798;41.574;23.734;2023-07-13T11:35:37;95411.31;;;41.24;35.19
9521;BME280;4798;41.574;23.734;2023-07-13T11:38:15;95409.94;;;40.55;33.82
9521;BME280;4798;41.574;23.734;2023-07-13T11:40:46;95398.25;;;40.21;35.56
9521;BME280;4798;41.574;23.734;2023-07-13T11:43:22;95405.44;;;40.76;35.70
9521;BME280;4798;41.574;23.734;2023-07-13T11:45:51;95393.19;;;39.79;35.33
9521;BME280;4798;41.574;23.734;2023-07-13T11:48:22;95388.56;;;39.85;34.67
9521;BME280;4798;41.574;23.734;2023-07-13T11:50:57;95382.28;;;39.94;35.04
9521;BME280;4798;41.574;23.734;2023-07-13T11:53:29;95394.38;;;39.69;35.39
9521;BME280;4798;41.574;23.734;2023-07-13T11:56:01;95386.00;;;40.58;34.84
9521;BME280;4798;41.574;23.734;2023-07-13T11:58:29;95374.91;;;40.00;34.39
9521;BME280;4798;41.574;23.734;2023-07-13T12:01:00;95366.38;;;41.07;33.02
9521;BME280;4798;41.574;23.734;2023-07-13T12:03:32;95366.81;;;41.24;32.96
9521;BME280;4798;41.574;23.734;2023-07-13T12:06:04;95362.97;;;40.39;33.28
9521;BME280;4798;41.574;23.734;2023-07-13T12:08:38;95361.59;;;40.80;34.17
9521;BME280;4798;41.574;23.734;2023-07-13T12:11:15;95359.09;;;40.37;33.94
9521;BME280;4798;41.574;23.734;2023-07-13T12:13:44;95351.38;;;39.43;35.22
9521;BME280;4798;41.574;23.734;2023-07-13T12:16:17;95343.91;;;40.02;33.47
9521;BME280;4798;41.574;23.734;2023-07-13T12:18:52;95337.66;;;40.92;32.48
9521;BME280;4798;41.574;23.734;2023-07-13T12:21:33;95341.63;;;41.09;32.18
9521;BME280;4798;41.574;23.734;2023-07-13T12:24:03;95325.63;;;40.95;32.83
9521;BME280;4798;41.574;23.734;2023-07-13T12:26:32;95342.72;;;41.21;31.57
9521;BME280;4798;41.574;23.734;2023-07-13T12:29:01;95335.31;;;41.08;32.51
9521;BME280;4798;41.574;23.734;2023-07-13T12:31:35;95334.47;;;41.44;33.09
9521;BME280;4798;41.574;23.734;2023-07-13T12:34:08;95339.41;;;41.49;31.52
9521;BME280;4798;41.574;23.734;2023-07-13T12:36:45;95330.41;;;40.49;31.60
9521;BME280;4798;41.574;23.734;2023-07-13T12:39:17;95330.63;;;41.33;31.31
9521;BME280;4798;41.574;23.734;2023-07-13T12:41:48;95329.34;;;41.52;32.35
9521;BME280;4798;41.574;23.734;2023-07-13T12:44:19;95321.28;;;41.54;32.17
9521;BME280;4798;41.574;23.734;2023-07-13T12:46:53;95323.09;;;41.66;31.60
9521;BME280;4798;41.574;23.734;2023-07-13T12:49:29;95323.31;;;40.57;30.22
9521;BME280;4798;41.574;23.734;2023-07-13T12:52:03;95311.56;;;40.44;31.48
9521;BME280;4798;41.574;23.734;2023-07-13T12:54:32;95316.13;;;41.19;30.38
9521;BME280;4798;41.574;23.734;2023-07-13T12:57:01;95314.34;;;41.49;31.68
9521;BME280;4798;41.574;23.734;2023-07-13T12:59:32;95316.22;;;40.56;29.90
9521;BME280;4798;41.574;23.734;2023-07-13T13:02:21;95305.41;;;40.40;30.34
9521;BME280;4798;41.574;23.734;2023-07-13T13:04:50;95299.88;;;41.27;32.99
9521;BME280;4798;41.574;23.734;2023-07-13T13:07:20;95305.03;;;41.61;29.98
9521;BME280;4798;41.574;23.734;2023-07-13T13:09:49;95297.75;;;41.13;29.12
9521;BME280;4798;41.574;23.734;2023-07-13T13:12:17;95297.44;;;41.62;30.80
9521;BME280;4798;41.574;23.734;2023-07-13T13:14:45;95294.16;;;41.22;29.29
9521;BME280;4798;41.574;23.734;2023-07-13T13:17:19;95294.09;;;41.49;29.92
9521;BME280;4798;41.574;23.734;2023-07-13T13:19:48;95282.97;;;40.98;28.88
9521;BME280;4798;41.574;23.734;2023-07-13T13:22:16;95275.78;;;41.33;29.38
9521;BME280;4798;41.574;23.734;2023-07-13T13:24:46;95280.75;;;41.29;29.12
9521;BME280;4798;41.574;23.734;2023-07-13T13:27:16;95280.06;;;40.83;31.56
9521;BME280;4798;41.574;23.734;2023-07-13T13:29:46;95281.75;;;40.81;30.00
9521;BME280;4798;41.574;23.734;2023-07-13T13:32:15;95278.06;;;40.75;29.62
9521;BME280;4798;41.574;23.734;2023-07-13T13:34:44;95281.75;;;40.81;30.92